createdAt,value
2023-01-26T00:01:10.925Z,37.58
2023-01-26T00:03:37.565Z,36.15
2023-01-26T00:06:05.519Z,36.78
2023-01-26T00:08:39.066Z,36.17
2023-01-26T00:11:06.659Z,34.33
2023-01-26T00:13:33.952Z,35.47
2023-01-26T00:16:01.146Z,37.90
2023-01-26T00:18:27.746Z,36.13
2023-01-26T00:21:02.246Z,35.97
2023-01-26T00:23:30.884Z,36.72
2023-01-26T00:25:57.466Z,38.30
2023-01-26T00:28:23.971Z,37.20
2023-01-26T00:30:50.521Z,38.22
2023-01-26T00:33:17.171Z,40.28
2023-01-26T00:35:46.293Z,35.42
2023-01-26T00:38:13.313Z,38.50
2023-01-26T00:40:41.639Z,34.55
2023-01-26T00:43:08.180Z,34.53
2023-01-26T00:45:35.726Z,34.05
2023-01-26T00:48:05.346Z,35.08
2023-01-26T00:50:31.836Z,36.42
2023-01-26T00:52:58.359Z,36.83
2023-01-26T00:55:32.023Z,38.78
2023-01-26T00:58:04.647Z,35.08
2023-01-26T01:00:32.751Z,36.47
2023-01-26T01:02:59.911Z,38.40
2023-01-26T01:05:28.261Z,37.85
2023-01-26T01:07:54.793Z,37.13
2023-01-26T01:10:21.451Z,37.75
2023-01-26T01:12:47.978Z,36.08
2023-01-26T01:15:14.625Z,33.97
2023-01-26T01:17:41.611Z,34.90
2023-01-26T01:20:10.276Z,34.17
2023-01-26T01:22:37.217Z,35.10
2023-01-26T01:25:04.641Z,38.58
2023-01-26T01:27:31.190Z,34.78
2023-01-26T01:29:57.704Z,34.33
2023-01-26T01:32:24.628Z,35.58
2023-01-26T01:34:51.222Z,34.83
2023-01-26T01:37:17.966Z,37.03
2023-01-26T01:39:44.547Z,35.08
2023-01-26T01:42:11.252Z,34.90
2023-01-26T01:44:38.591Z,35.00
2023-01-26T01:47:34.522Z,32.85
2023-01-26T01:50:04.208Z,39.25
2023-01-26T01:52:31.332Z,37.90
2023-01-26T01:55:08.964Z,37.15
2023-01-26T01:57:56.038Z,37.35
2023-01-26T02:00:23.921Z,36.90
2023-01-26T02:03:19.325Z,36.80
2023-01-26T02:05:56.231Z,35.25
2023-01-26T02:08:29.532Z,34.10
2023-01-26T02:10:58.670Z,34.83
2023-01-26T02:13:27.380Z,34.08
2023-01-26T02:15:54.617Z,32.85
2023-01-26T02:18:21.418Z,36.47
2023-01-26T02:20:56.369Z,33.88
2023-01-26T02:23:35.973Z,32.53
2023-01-26T02:26:09.401Z,32.30
2023-01-26T02:28:35.902Z,34.05
2023-01-26T02:31:03.595Z,32.30
2023-01-26T02:33:31.948Z,34.72
2023-01-26T02:39:11.869Z,30.65
2023-01-26T02:41:58.598Z,32.45
2023-01-26T02:44:25.715Z,34.65
2023-01-26T02:46:53.507Z,33.78
2023-01-26T02:49:39.173Z,32.17
2023-01-26T02:52:06.326Z,36.28
2023-01-26T02:54:51.963Z,33.47
2023-01-26T02:57:18.565Z,32.95
2023-01-26T02:59:45.223Z,34.47
2023-01-26T03:02:14.083Z,32.03
2023-01-26T03:04:41.420Z,34.72
2023-01-26T03:07:07.995Z,32.38
2023-01-26T03:09:34.671Z,34.40
2023-01-26T03:12:01.187Z,33.40
2023-01-26T03:14:28.240Z,34.08
2023-01-26T03:16:55.675Z,32.53
2023-01-26T03:19:41.066Z,34.15
2023-01-26T03:22:28.500Z,33.15
2023-01-26T03:25:14.903Z,33.95
2023-01-26T03:27:47.626Z,34.78
2023-01-26T03:30:17.858Z,35.58
2023-01-26T03:32:46.200Z,36.90
2023-01-26T03:35:15.560Z,36.13
2023-01-26T03:37:44.234Z,35.53
2023-01-26T03:40:51.860Z,37.47
2023-01-26T03:43:37.110Z,36.60
2023-01-26T03:46:24.526Z,37.67
2023-01-26T03:49:09.594Z,36.80
2023-01-26T03:51:54.742Z,37.25
2023-01-26T03:54:39.810Z,37.33
2023-01-26T03:57:07.046Z,35.78
2023-01-26T03:59:39.929Z,33.95
2023-01-26T04:02:31.948Z,36.83
2023-01-26T04:05:19.040Z,34.35
2023-01-26T04:08:07.219Z,36.95
2023-01-26T04:10:33.766Z,35.90
2023-01-26T04:13:21.571Z,37.63
2023-01-26T04:16:11.718Z,37.80
2023-01-26T04:18:57.279Z,37.17
2023-01-26T04:21:36.360Z,38.40
2023-01-26T04:24:24.369Z,35.75
2023-01-26T04:26:54.877Z,36.13
2023-01-26T04:29:25.504Z,39.60
2023-01-26T04:31:52.154Z,36.55
2023-01-26T04:34:20.762Z,37.45
2023-01-26T04:36:47.724Z,39.10
2023-01-26T04:39:15.869Z,38.35
2023-01-26T04:41:46.685Z,36.90
2023-01-26T04:44:15.435Z,40.35
2023-01-26T04:46:42.729Z,35.45
2023-01-26T04:49:11.685Z,36.78
2023-01-26T04:51:39.291Z,38.83
2023-01-26T04:54:06.142Z,34.72
2023-01-26T04:56:36.068Z,36.05
2023-01-26T04:59:07.292Z,36.00
2023-01-26T05:01:35.710Z,34.63
2023-01-26T05:04:05.610Z,32.83
2023-01-26T05:06:33.147Z,36.30
2023-01-26T05:08:59.698Z,36.70
2023-01-26T05:11:27.345Z,35.08
2023-01-26T05:14:04.703Z,34.92
2023-01-26T05:16:50.180Z,35.10
2023-01-26T05:19:48.990Z,32.00
2023-01-26T05:22:36.522Z,32.63
2023-01-26T05:25:23.193Z,34.58
2023-01-26T05:27:59.062Z,32.95
2023-01-26T05:30:25.727Z,32.25
2023-01-26T05:32:52.417Z,34.10
2023-01-26T05:35:19.017Z,32.95
2023-01-26T05:37:46.200Z,32.55
2023-01-26T05:40:16.141Z,31.42
2023-01-26T05:42:45.053Z,31.95
2023-01-26T05:45:21.670Z,30.80
2023-01-26T05:47:50.795Z,32.50
2023-01-26T05:50:18.427Z,32.90
2023-01-26T05:53:05.345Z,35.03
2023-01-26T05:55:32.673Z,30.15
2023-01-26T05:57:59.384Z,31.70
2023-01-26T06:00:27.307Z,31.33
2023-01-26T06:03:01.846Z,31.30
2023-01-26T06:05:28.575Z,29.90
2023-01-26T06:07:58.889Z,32.13
2023-01-26T06:10:30.385Z,29.27
2023-01-26T06:13:03.173Z,28.25
2023-01-26T06:15:40.473Z,29.77
2023-01-26T06:18:08.912Z,29.27
2023-01-26T06:20:36.121Z,27.65
2023-01-26T06:23:05.581Z,26.90
2023-01-26T06:25:34.632Z,27.52
2023-01-26T06:28:01.749Z,28.15
2023-01-26T06:30:29.398Z,28.58
2023-01-26T06:33:01.060Z,28.80
2023-01-26T06:35:28.971Z,26.55
2023-01-26T06:40:26.581Z,24.88
2023-01-26T06:42:53.169Z,28.00
2023-01-26T06:45:20.653Z,25.70
2023-01-26T06:47:49.628Z,26.27
2023-01-26T06:50:19.521Z,27.45
2023-01-26T06:52:48.119Z,27.33
2023-01-26T06:55:38.018Z,27.30
2023-01-26T06:58:23.374Z,26.05
2023-01-26T07:01:14.071Z,26.38
2023-01-26T07:03:40.624Z,26.80
2023-01-26T07:06:07.902Z,28.67
2023-01-26T07:08:34.455Z,27.20
2023-01-26T07:11:00.995Z,28.40
2023-01-26T07:13:27.567Z,28.55
2023-01-26T07:16:11.427Z,28.83
2023-01-26T07:18:38.242Z,25.92
2023-01-26T07:21:12.737Z,26.25
2023-01-26T07:23:39.248Z,29.25
2023-01-26T07:26:06.439Z,26.67
2023-01-26T07:28:34.188Z,25.80
2023-01-26T07:31:02.366Z,24.83
2023-01-26T07:33:29.506Z,26.52
2023-01-26T07:35:56.404Z,26.67
2023-01-26T07:38:23.381Z,27.52
2023-01-26T07:40:50.369Z,28.30
2023-01-26T07:43:16.941Z,24.90
2023-01-26T07:45:49.371Z,26.50
2023-01-26T07:48:16.628Z,26.35
2023-01-26T07:50:45.119Z,31.55
2023-01-26T07:53:14.822Z,30.48
2023-01-26T07:55:44.640Z,29.02
2023-01-26T07:58:11.994Z,25.23
2023-01-26T08:00:39.876Z,28.45
2023-01-26T08:03:06.868Z,27.60
2023-01-26T08:05:33.572Z,28.60
2023-01-26T08:08:00.676Z,27.98
2023-01-26T08:10:31.504Z,30.33
2023-01-26T08:13:01.278Z,27.17
2023-01-26T08:15:28.513Z,27.83
2023-01-26T08:17:55.352Z,29.13
2023-01-26T08:20:22.369Z,28.65
2023-01-26T08:22:48.870Z,27.88
2023-01-26T08:25:15.563Z,26.52
2023-01-26T08:27:42.074Z,28.85
2023-01-26T08:30:09.612Z,30.90
2023-01-26T08:32:36.561Z,27.58
2023-01-26T08:35:03.191Z,26.83
2023-01-26T08:37:29.724Z,28.70
2023-01-26T08:39:56.211Z,27.08
2023-01-26T08:42:23.005Z,28.75
2023-01-26T08:44:49.619Z,27.50
2023-01-26T08:47:16.195Z,28.58
2023-01-26T08:49:42.704Z,30.15
2023-01-26T08:52:09.224Z,27.55
2023-01-26T08:54:35.757Z,27.67
2023-01-26T08:57:02.309Z,29.08
2023-01-26T08:59:28.828Z,30.25
2023-01-26T09:01:56.525Z,29.45
2023-01-26T09:04:23.105Z,27.67
2023-01-26T09:06:49.653Z,28.42
2023-01-26T09:09:16.975Z,28.05
2023-01-26T09:11:43.519Z,29.33
2023-01-26T09:14:10.124Z,27.20
2023-01-26T09:16:36.654Z,27.30
2023-01-26T09:19:03.377Z,29.33
2023-01-26T09:21:29.911Z,30.85
2023-01-26T09:23:57.145Z,29.25
2023-01-26T09:26:23.775Z,29.08
2023-01-26T09:28:52.137Z,29.90
2023-01-26T09:31:19.044Z,31.40
2023-01-26T09:33:46.091Z,28.38
2023-01-26T09:36:13.098Z,28.65
2023-01-26T09:38:40.177Z,31.52
2023-01-26T09:41:35.855Z,28.80
2023-01-26T09:44:09.502Z,28.23
2023-01-26T09:47:09.189Z,28.73
2023-01-26T09:49:56.640Z,25.08
2023-01-26T09:52:31.075Z,26.88
2023-01-26T09:54:59.578Z,27.52
2023-01-26T09:57:48.217Z,26.55
2023-01-26T10:00:33.864Z,27.10
2023-01-26T10:03:37.179Z,26.83
2023-01-26T10:06:13.637Z,24.80
2023-01-26T10:09:03.663Z,26.73
2023-01-26T10:11:40.005Z,26.73
2023-01-26T10:14:21.611Z,26.70
2023-01-26T10:16:50.518Z,26.38
2023-01-26T10:19:28.582Z,23.85
2023-01-26T10:21:56.134Z,24.98
2023-01-26T10:24:23.813Z,25.38
2023-01-26T10:26:53.529Z,24.75
2023-01-26T10:29:20.611Z,23.70
2023-01-26T10:31:47.161Z,24.83
2023-01-26T10:34:24.727Z,24.85
2023-01-26T10:36:55.813Z,24.95
2023-01-26T10:39:22.319Z,22.98
2023-01-26T10:42:02.898Z,21.27
2023-01-26T10:44:34.987Z,20.95
2023-01-26T10:47:07.823Z,18.65
2023-01-26T10:49:34.427Z,19.40
2023-01-26T10:52:11.519Z,18.38
2023-01-26T10:54:39.505Z,16.60
2023-01-26T10:57:30.552Z,16.60
2023-01-26T10:59:59.335Z,15.88
2023-01-26T11:02:28.755Z,14.63
2023-01-26T11:05:02.808Z,13.88
2023-01-26T11:07:35.606Z,13.18
2023-01-26T11:10:25.474Z,14.45
2023-01-26T11:13:06.740Z,13.50
2023-01-26T11:18:13.473Z,13.70
2023-01-26T11:20:42.623Z,13.25
2023-01-26T11:23:33.334Z,13.32
2023-01-26T11:26:09.291Z,13.68
2023-01-26T11:29:07.088Z,13.23
2023-01-26T11:31:39.123Z,13.38
2023-01-26T11:34:44.671Z,14.48
2023-01-26T11:37:30.784Z,14.15
2023-01-26T11:40:23.422Z,12.52
2023-01-26T11:43:05.110Z,13.88
2023-01-26T11:45:40.619Z,13.13
2023-01-26T11:48:13.111Z,14.43
2023-01-26T11:50:44.952Z,12.90
2023-01-26T11:53:39.079Z,13.40
2023-01-26T11:56:14.421Z,12.68
2023-01-26T11:58:51.615Z,11.82
2023-01-26T12:01:28.712Z,11.43
2023-01-26T12:03:56.408Z,13.75
2023-01-26T12:06:35.601Z,13.38
2023-01-26T12:09:03.742Z,11.38
2023-01-26T12:11:35.755Z,12.10
2023-01-26T12:14:22.193Z,10.90
2023-01-26T12:16:58.059Z,11.18
2023-01-26T12:19:52.959Z,10.98
2023-01-26T12:22:24.607Z,11.45
2023-01-26T12:25:18.636Z,11.55
2023-01-26T12:27:55.727Z,11.05
2023-01-26T12:30:41.086Z,10.35
2023-01-26T12:33:10.354Z,10.90
2023-01-26T12:35:56.938Z,11.18
2023-01-26T12:38:30.277Z,10.98
2023-01-26T12:41:10.882Z,9.85
2023-01-26T12:43:58.833Z,8.85
2023-01-26T12:46:28.767Z,9.75
2023-01-26T12:49:04.060Z,10.30
2023-01-26T12:51:33.583Z,10.98
2023-01-26T12:54:08.521Z,9.98
2023-01-26T12:56:44.326Z,10.35
2023-01-26T12:59:38.688Z,9.95
2023-01-26T13:02:31.516Z,10.40
2023-01-26T13:05:00.293Z,10.43
2023-01-26T13:07:31.810Z,10.15
2023-01-26T13:10:10.985Z,10.68
2023-01-26T13:12:49.847Z,9.35
2023-01-26T13:15:19.468Z,9.68
2023-01-26T13:17:56.723Z,11.85
2023-01-26T13:20:45.598Z,12.70
2023-01-26T13:23:43.894Z,11.55
2023-01-26T13:26:20.919Z,12.75
2023-01-26T13:28:49.001Z,12.48
2023-01-26T13:31:33.243Z,12.70
2023-01-26T13:34:03.471Z,13.45
2023-01-26T13:36:34.062Z,12.07
2023-01-26T13:39:04.633Z,15.65
2023-01-26T13:41:31.157Z,13.77
2023-01-26T13:44:08.942Z,13.10
2023-01-26T13:46:55.874Z,14.65
2023-01-26T13:49:42.859Z,13.75
2023-01-26T13:52:18.158Z,15.13
2023-01-26T13:54:45.733Z,15.85
2023-01-26T13:57:13.544Z,14.80
2023-01-26T13:59:50.750Z,14.98
2023-01-26T14:02:32.243Z,16.42
2023-01-26T14:05:00.110Z,15.27
2023-01-26T14:07:39.023Z,15.23
2023-01-26T14:10:06.689Z,17.15
2023-01-26T14:12:36.340Z,16.45
2023-01-26T14:15:07.224Z,18.17
2023-01-26T14:17:38.803Z,17.20
2023-01-26T14:20:20.841Z,16.83
2023-01-26T14:23:21.940Z,17.90
2023-01-26T14:26:17.573Z,17.05
2023-01-26T14:28:44.345Z,16.38
2023-01-26T14:31:18.522Z,19.27
2023-01-26T14:33:45.275Z,17.10
2023-01-26T14:36:16.892Z,19.10
2023-01-26T14:38:45.897Z,19.77
2023-01-26T14:41:32.019Z,19.92
2023-01-26T14:44:03.988Z,21.63
2023-01-26T14:46:58.555Z,21.45
2023-01-26T14:49:44.945Z,20.10
2023-01-26T14:52:22.155Z,19.52
2023-01-26T14:54:50.152Z,19.70
2023-01-26T14:57:20.122Z,21.70
2023-01-26T14:59:56.227Z,20.10
2023-01-26T15:02:28.139Z,21.13
2023-01-26T15:05:01.038Z,21.48
2023-01-26T15:07:41.083Z,22.83
2023-01-26T15:10:34.159Z,22.13
2023-01-26T15:13:02.727Z,21.38
2023-01-26T15:15:32.414Z,21.80
2023-01-26T15:18:15.554Z,22.75
2023-01-26T15:21:01.957Z,22.27
2023-01-26T15:23:34.200Z,23.55
2023-01-26T15:26:06.029Z,23.00
2023-01-26T15:28:32.709Z,25.00
2023-01-26T15:30:59.529Z,24.67
2023-01-26T15:33:40.393Z,23.42
2023-01-26T15:36:24.151Z,24.80
2023-01-26T15:39:02.135Z,24.60
2023-01-26T15:41:29.882Z,24.25
2023-01-26T15:43:57.487Z,25.75
2023-01-26T15:46:24.190Z,24.98
2023-01-26T15:48:50.722Z,23.80
2023-01-26T15:51:17.461Z,25.05
2023-01-26T15:53:44.177Z,25.08
2023-01-26T15:56:15.740Z,25.45
2023-01-26T15:58:43.426Z,23.98
2023-01-26T16:01:15.339Z,25.30
2023-01-26T16:03:44.040Z,26.83
2023-01-26T16:06:22.789Z,24.70
2023-01-26T16:08:50.051Z,23.48
2023-01-26T16:11:17.784Z,21.83
2023-01-26T16:13:54.019Z,22.63
2023-01-26T16:16:29.718Z,22.80
2023-01-26T16:18:57.449Z,22.75
2023-01-26T16:21:32.985Z,21.40
2023-01-26T16:24:00.881Z,22.92
2023-01-26T16:26:30.456Z,22.17
2023-01-26T16:28:57.979Z,23.55
2023-01-26T16:31:29.059Z,22.10
2023-01-26T16:36:23.732Z,23.33
2023-01-26T16:38:50.414Z,23.45
2023-01-26T16:41:31.130Z,21.75
2023-01-26T16:43:59.639Z,15.80
2023-01-26T16:46:27.894Z,21.05
2023-01-26T16:48:54.516Z,21.50
2023-01-26T16:51:27.036Z,21.27
2023-01-26T16:53:54.433Z,20.95
2023-01-26T16:56:22.057Z,20.58
2023-01-26T16:58:48.650Z,23.25
2023-01-26T17:01:21.456Z,23.65
2023-01-26T17:03:48.490Z,22.17
2023-01-26T17:06:17.818Z,23.85
2023-01-26T17:08:44.805Z,24.88
2023-01-26T17:11:16.835Z,23.52
2023-01-26T17:13:43.425Z,23.70
2023-01-26T17:16:15.448Z,23.20
2023-01-26T17:18:42.330Z,23.30
2023-01-26T17:21:08.928Z,24.95
2023-01-26T17:23:37.314Z,24.92
2023-01-26T17:26:03.987Z,26.02
2023-01-26T17:28:30.634Z,25.48
2023-01-26T17:31:00.048Z,24.38
2023-01-26T17:33:28.691Z,25.95
2023-01-26T17:36:02.085Z,24.73
2023-01-26T17:38:28.561Z,26.35
2023-01-26T17:40:56.373Z,24.08
2023-01-26T17:43:23.035Z,25.23
2023-01-26T17:45:49.831Z,25.38
2023-01-26T17:48:16.651Z,25.38
2023-01-26T17:50:49.659Z,26.00
2023-01-26T17:53:16.599Z,24.45
2023-01-26T17:55:43.847Z,24.30
2023-01-26T17:58:10.861Z,24.88
2023-01-26T18:00:38.138Z,23.65
2023-01-26T18:03:05.575Z,24.83
2023-01-26T18:05:33.064Z,23.58
2023-01-26T18:07:59.633Z,25.10
2023-01-26T18:10:30.392Z,25.55
2023-01-26T18:12:57.601Z,26.27
2023-01-26T18:15:24.549Z,24.92
2023-01-26T18:17:51.207Z,26.10
2023-01-26T18:20:17.921Z,26.08
2023-01-26T18:22:44.643Z,41.13
2023-01-26T18:25:12.434Z,34.30
2023-01-26T18:27:39.678Z,28.27
2023-01-26T18:30:07.114Z,27.23
2023-01-26T18:32:33.594Z,26.02
2023-01-26T18:35:01.321Z,27.17
2023-01-26T18:37:28.348Z,26.85
2023-01-26T18:39:55.250Z,24.88
2023-01-26T18:42:22.243Z,24.98
2023-01-26T18:44:49.278Z,26.75
2023-01-26T18:47:15.792Z,24.92
2023-01-26T18:49:42.479Z,24.45
2023-01-26T18:52:09.198Z,25.30
2023-01-26T18:54:35.942Z,25.02
2023-01-26T18:57:02.463Z,26.48
2023-01-26T18:59:29.400Z,26.20
2023-01-26T19:01:55.990Z,26.20
2023-01-26T19:04:22.535Z,25.90
2023-01-26T19:06:49.446Z,25.88
2023-01-26T19:09:16.613Z,26.23
2023-01-26T19:11:43.553Z,28.60
2023-01-26T19:14:10.631Z,26.77
2023-01-26T19:16:37.536Z,28.00
2023-01-26T19:19:05.061Z,26.95
2023-01-26T19:21:33.851Z,27.10
2023-01-26T19:24:05.539Z,25.95
2023-01-26T19:26:32.983Z,26.80
2023-01-26T19:29:00.115Z,26.05
2023-01-26T19:31:27.079Z,25.58
2023-01-26T19:33:59.354Z,25.83
2023-01-26T19:36:27.860Z,24.98
2023-01-26T19:38:54.883Z,25.73
2023-01-26T19:41:22.213Z,25.27
2023-01-26T19:43:50.375Z,23.65
2023-01-26T19:46:18.741Z,23.48
2023-01-26T19:48:46.373Z,23.40
2023-01-26T19:51:23.861Z,21.90
2023-01-26T19:53:52.183Z,22.50
2023-01-26T19:56:30.101Z,19.15
2023-01-26T19:58:59.174Z,20.45
2023-01-26T20:01:28.249Z,20.35
2023-01-26T20:04:00.165Z,18.98
2023-01-26T20:06:29.758Z,19.35
2023-01-26T20:08:57.416Z,19.27
2023-01-26T20:11:26.558Z,18.77
2023-01-26T20:14:00.451Z,18.45
2023-01-26T20:16:28.204Z,19.60
2023-01-26T20:18:56.896Z,16.77
2023-01-26T20:21:24.082Z,18.10
2023-01-26T20:23:54.767Z,17.00
2023-01-26T20:26:23.266Z,17.70
2023-01-26T20:28:51.713Z,15.23
2023-01-26T20:31:21.037Z,17.05
2023-01-26T20:33:51.441Z,17.17
2023-01-26T20:36:20.738Z,17.23
2023-01-26T20:38:48.264Z,17.52
2023-01-26T20:41:17.153Z,16.08
2023-01-26T20:43:58.110Z,15.30
2023-01-26T20:46:26.574Z,15.23
2023-01-26T20:48:55.755Z,15.25
2023-01-26T20:51:25.139Z,16.25
2023-01-26T20:53:51.716Z,14.80
2023-01-26T20:56:22.605Z,14.88
2023-01-26T20:58:52.235Z,15.00
2023-01-26T21:01:19.323Z,14.30
2023-01-26T21:03:46.202Z,14.48
2023-01-26T21:06:15.061Z,15.13
2023-01-26T21:08:41.886Z,14.23
2023-01-26T21:11:11.883Z,15.27
2023-01-26T21:13:41.101Z,13.70
2023-01-26T21:16:08.452Z,15.60
2023-01-26T21:18:35.087Z,13.48
2023-01-26T21:21:04.179Z,14.98
2023-01-26T21:23:31.534Z,13.73
2023-01-26T21:25:59.832Z,14.07
2023-01-26T21:28:27.202Z,12.55
2023-01-26T21:31:10.643Z,12.93
2023-01-26T21:33:40.723Z,13.85
2023-01-26T21:36:08.509Z,12.07
2023-01-26T21:38:40.151Z,11.88
2023-01-26T21:41:30.541Z,12.15
2023-01-26T21:44:10.972Z,10.93
2023-01-26T21:46:37.671Z,10.23
2023-01-26T21:49:05.543Z,10.60
2023-01-26T21:51:50.877Z,11.35
2023-01-26T21:54:17.399Z,10.40
2023-01-26T21:56:43.950Z,10.75
2023-01-26T21:59:14.735Z,10.23
2023-01-26T22:01:49.912Z,8.25
2023-01-26T22:04:22.222Z,9.32
2023-01-26T22:06:49.334Z,10.15
2023-01-26T22:09:16.783Z,10.45
2023-01-26T22:11:43.889Z,8.98
2023-01-26T22:14:16.072Z,9.65
2023-01-26T22:16:43.134Z,9.93
2023-01-26T22:19:10.592Z,9.43
2023-01-26T22:21:38.006Z,9.48
2023-01-26T22:24:05.374Z,10.35
2023-01-26T22:26:32.009Z,9.43
2023-01-26T22:28:59.519Z,9.25
2023-01-26T22:31:28.116Z,10.25
2023-01-26T22:33:55.925Z,8.57
2023-01-26T22:36:22.662Z,8.70
2023-01-26T22:38:49.763Z,7.97
2023-01-26T22:41:21.918Z,7.20
2023-01-26T22:43:49.453Z,8.63
2023-01-26T22:46:17.890Z,7.85
2023-01-26T22:48:45.043Z,7.60
2023-01-26T22:51:12.524Z,7.35
2023-01-26T22:53:39.668Z,7.25
2023-01-26T22:56:07.656Z,6.93
2023-01-26T22:58:39.755Z,6.82
2023-01-26T23:01:15.892Z,6.35
2023-01-26T23:03:44.681Z,7.47
2023-01-26T23:06:14.278Z,6.75
2023-01-26T23:08:41.711Z,6.90
2023-01-26T23:11:18.553Z,7.20
2023-01-26T23:13:46.140Z,6.78
2023-01-26T23:16:12.920Z,7.32
2023-01-26T23:18:40.775Z,7.13
2023-01-26T23:21:08.006Z,7.07
2023-01-26T23:23:35.047Z,7.53
2023-01-26T23:26:01.652Z,7.25
2023-01-26T23:28:30.612Z,7.88
2023-01-26T23:30:58.070Z,6.43
2023-01-26T23:33:26.314Z,6.28
2023-01-26T23:35:52.863Z,6.35
2023-01-26T23:38:24.605Z,5.65
2023-01-26T23:40:51.328Z,6.10
2023-01-26T23:43:18.966Z,6.18
2023-01-26T23:45:47.064Z,6.60
2023-01-26T23:48:14.181Z,4.97
2023-01-26T23:50:41.228Z,5.68
2023-01-26T23:53:08.116Z,5.35
2023-01-26T23:55:35.127Z,5.78
2023-01-26T23:58:01.766Z,4.18
